sensor_id;sensor_type;location;lat;lon;timestamp;P1;durP1;ratioP1;P2;durP2;ratioP2
40997;SDS011;26740;45.944;12.480;2023-04-24T00:00:03;12.77;;;10.18;;
40997;SDS011;26740;45.944;12.480;2023-04-24T00:02:34;16.17;;;11.20;;
40997;SDS011;26740;45.944;12.480;2023-04-24T00:04:59;14.13;;;10.43;;
40997;SDS011;26740;45.944;12.480;2023-04-24T00:07:28;15.73;;;10.52;;
40997;SDS011;26740;45.944;12.480;2023-04-24T00:09:53;13.32;;;10.75;;
40997;SDS011;26740;45.944;12.480;2023-04-24T00:12:19;11.70;;;9.23;;
40997;SDS011;26740;45.944;12.480;2023-04-24T00:14:44;14.90;;;10.40;;
40997;SDS011;26740;45.944;12.480;2023-04-24T00:17:10;14.85;;;10.27;;
40997;SDS011;26740;45.944;12.480;2023-04-24T00:19:35;16.38;;;10.57;;
40997;SDS011;26740;45.944;12.480;2023-04-24T00:22:01;12.85;;;10.70;;
40997;SDS011;26740;45.944;12.480;2023-04-24T00:24:27;13.07;;;9.35;;
40997;SDS011;26740;45.944;12.480;2023-04-24T00:26:52;13.32;;;9.32;;
40997;SDS011;26740;45.944;12.480;2023-04-24T00:29:17;14.90;;;10.07;;
40997;SDS011;26740;45.944;12.480;2023-04-24T00:31:43;10.93;;;8.63;;
40997;SDS011;26740;45.944;12.480;2023-04-24T00:34:08;11.00;;;8.68;;
40997;SDS011;26740;45.944;12.480;2023-04-24T00:36:33;11.45;;;8.25;;
40997;SDS011;26740;45.944;12.480;2023-04-24T00:38:59;9.93;;;7.78;;
40997;SDS011;26740;45.944;12.480;2023-04-24T00:41:25;10.13;;;8.00;;
40997;SDS011;26740;45.944;12.480;2023-04-24T00:43:51;17.25;;;9.07;;
40997;SDS011;26740;45.944;12.480;2023-04-24T00:46:16;10.02;;;7.72;;
40997;SDS011;26740;45.944;12.480;2023-04-24T00:48:42;10.82;;;7.90;;
40997;SDS011;26740;45.944;12.480;2023-04-24T00:51:08;8.98;;;7.07;;
40997;SDS011;26740;45.944;12.480;2023-04-24T00:53:33;13.13;;;8.13;;
40997;SDS011;26740;45.944;12.480;2023-04-24T00:55:59;8.68;;;6.70;;
40997;SDS011;26740;45.944;12.480;2023-04-24T00:58:25;8.75;;;7.50;;
40997;SDS011;26740;45.944;12.480;2023-04-24T01:00:50;8.88;;;6.72;;
40997;SDS011;26740;45.944;12.480;2023-04-24T01:03:18;7.95;;;6.68;;
40997;SDS011;26740;45.944;12.480;2023-04-24T01:05:44;7.55;;;6.25;;
40997;SDS011;26740;45.944;12.480;2023-04-24T01:08:10;7.88;;;7.07;;
40997;SDS011;26740;45.944;12.480;2023-04-24T01:10:36;9.65;;;6.57;;
40997;SDS011;26740;45.944;12.480;2023-04-24T01:13:03;11.18;;;7.35;;
40997;SDS011;26740;45.944;12.480;2023-04-24T01:15:29;8.15;;;6.35;;
40997;SDS011;26740;45.944;12.480;2023-04-24T01:17:54;7.88;;;6.57;;
40997;SDS011;26740;45.944;12.480;2023-04-24T01:20:21;8.02;;;7.15;;
40997;SDS011;26740;45.944;12.480;2023-04-24T01:22:46;7.93;;;6.35;;
40997;SDS011;26740;45.944;12.480;2023-04-24T01:25:12;6.70;;;5.85;;
40997;SDS011;26740;45.944;12.480;2023-04-24T01:27:37;9.75;;;6.32;;
40997;SDS011;26740;45.944;12.480;2023-04-24T01:30:03;6.85;;;6.05;;
40997;SDS011;26740;45.944;12.480;2023-04-24T01:32:29;7.07;;;6.00;;
40997;SDS011;26740;45.944;12.480;2023-04-24T01:34:54;7.00;;;5.97;;
40997;SDS011;26740;45.944;12.480;2023-04-24T01:37:20;7.97;;;5.75;;
40997;SDS011;26740;45.944;12.480;2023-04-24T01:39:45;6.57;;;5.05;;
40997;SDS011;26740;45.944;12.480;2023-04-24T01:42:11;6.15;;;5.15;;
40997;SDS011;26740;45.944;12.480;2023-04-24T01:44:37;11.43;;;6.88;;
40997;SDS011;26740;45.944;12.480;2023-04-24T01:47:02;7.97;;;5.18;;
40997;SDS011;26740;45.944;12.480;2023-04-24T01:49:27;7.90;;;6.15;;
40997;SDS011;26740;45.944;12.480;2023-04-24T01:51:53;6.05;;;5.45;;
40997;SDS011;26740;45.944;12.480;2023-04-24T01:54:18;8.48;;;6.30;;
40997;SDS011;26740;45.944;12.480;2023-04-24T01:56:44;8.48;;;5.18;;
40997;SDS011;26740;45.944;12.480;2023-04-24T01:59:10;5.57;;;4.53;;
40997;SDS011;26740;45.944;12.480;2023-04-24T02:01:36;8.23;;;5.15;;
40997;SDS011;26740;45.944;12.480;2023-04-24T02:04:02;4.90;;;4.25;;
40997;SDS011;26740;45.944;12.480;2023-04-24T02:06:27;8.98;;;5.20;;
40997;SDS011;26740;45.944;12.480;2023-04-24T02:08:52;8.23;;;5.68;;
40997;SDS011;26740;45.944;12.480;2023-04-24T02:11:18;5.47;;;4.78;;
40997;SDS011;26740;45.944;12.480;2023-04-24T02:13:43;7.78;;;5.10;;
40997;SDS011;26740;45.944;12.480;2023-04-24T02:16:09;6.95;;;4.93;;
40997;SDS011;26740;45.944;12.480;2023-04-24T02:18:34;6.15;;;5.43;;
40997;SDS011;26740;45.944;12.480;2023-04-24T02:21:00;6.72;;;4.65;;
40997;SDS011;26740;45.944;12.480;2023-04-24T02:23:25;7.75;;;4.38;;
40997;SDS011;26740;45.944;12.480;2023-04-24T02:25:52;4.78;;;4.28;;
40997;SDS011;26740;45.944;12.480;2023-04-24T02:28:18;8.32;;;4.80;;
40997;SDS011;26740;45.944;12.480;2023-04-24T02:30:43;4.97;;;4.28;;
40997;SDS011;26740;45.944;12.480;2023-04-24T02:33:09;7.30;;;4.28;;
40997;SDS011;26740;45.944;12.480;2023-04-24T02:35:34;4.85;;;4.35;;
40997;SDS011;26740;45.944;12.480;2023-04-24T02:37:59;3.80;;;3.50;;
40997;SDS011;26740;45.944;12.480;2023-04-24T02:40:25;4.07;;;3.67;;
40997;SDS011;26740;45.944;12.480;2023-04-24T02:42:50;6.90;;;4.03;;
40997;SDS011;26740;45.944;12.480;2023-04-24T02:45:15;6.40;;;3.70;;
40997;SDS011;26740;45.944;12.480;2023-04-24T02:47:41;6.30;;;4.68;;
40997;SDS011;26740;45.944;12.480;2023-04-24T02:50:06;4.85;;;4.35;;
40997;SDS011;26740;45.944;12.480;2023-04-24T02:52:32;5.50;;;4.82;;
40997;SDS011;26740;45.944;12.480;2023-04-24T02:54:57;11.07;;;4.80;;
40997;SDS011;26740;45.944;12.480;2023-04-24T02:57:22;8.23;;;4.43;;
40997;SDS011;26740;45.944;12.480;2023-04-24T02:59:48;5.15;;;4.00;;
40997;SDS011;26740;45.944;12.480;2023-04-24T03:02:13;8.77;;;4.57;;
40997;SDS011;26740;45.944;12.480;2023-04-24T03:04:38;5.68;;;4.47;;
40997;SDS011;26740;45.944;12.480;2023-04-24T03:07:05;5.53;;;4.57;;
40997;SDS011;26740;45.944;12.480;2023-04-24T03:09:30;5.63;;;4.60;;
40997;SDS011;26740;45.944;12.480;2023-04-24T03:11:56;5.82;;;4.80;;
40997;SDS011;26740;45.944;12.480;2023-04-24T03:14:22;5.38;;;4.30;;
40997;SDS011;26740;45.944;12.480;2023-04-24T03:16:47;5.13;;;4.57;;
40997;SDS011;26740;45.944;12.480;2023-04-24T03:19:12;5.53;;;4.03;;
40997;SDS011;26740;45.944;12.480;2023-04-24T03:21:38;5.05;;;3.97;;
40997;SDS011;26740;45.944;12.480;2023-04-24T03:24:06;6.40;;;4.72;;
40997;SDS011;26740;45.944;12.480;2023-04-24T03:26:31;8.10;;;4.32;;
40997;SDS011;26740;45.944;12.480;2023-04-24T03:28:57;7.00;;;4.97;;
40997;SDS011;26740;45.944;12.480;2023-04-24T03:31:22;11.13;;;5.35;;
40997;SDS011;26740;45.944;12.480;2023-04-24T03:33:48;7.65;;;4.97;;
40997;SDS011;26740;45.944;12.480;2023-04-24T03:36:14;6.32;;;5.43;;
40997;SDS011;26740;45.944;12.480;2023-04-24T03:38:39;7.18;;;5.18;;
40997;SDS011;26740;45.944;12.480;2023-04-24T03:41:04;7.65;;;5.15;;
40997;SDS011;26740;45.944;12.480;2023-04-24T03:43:30;10.75;;;5.72;;
40997;SDS011;26740;45.944;12.480;2023-04-24T03:45:58;7.10;;;4.63;;
40997;SDS011;26740;45.944;12.480;2023-04-24T03:48:23;5.68;;;4.78;;
40997;SDS011;26740;45.944;12.480;2023-04-24T03:50:49;7.43;;;4.57;;
40997;SDS011;26740;45.944;12.480;2023-04-24T03:53:14;8.57;;;5.35;;
40997;SDS011;26740;45.944;12.480;2023-04-24T03:55:40;9.00;;;5.47;;
40997;SDS011;26740;45.944;12.480;2023-04-24T03:58:05;6.97;;;4.93;;
40997;SDS011;26740;45.944;12.480;2023-04-24T04:00:30;7.43;;;4.75;;
40997;SDS011;26740;45.944;12.480;2023-04-24T04:02:57;9.27;;;4.95;;
40997;SDS011;26740;45.944;12.480;2023-04-24T04:05:22;5.47;;;4.07;;
40997;SDS011;26740;45.944;12.480;2023-04-24T04:07:48;13.18;;;6.22;;
40997;SDS011;26740;45.944;12.480;2023-04-24T04:10:13;10.25;;;5.40;;
40997;SDS011;26740;45.944;12.480;2023-04-24T04:12:38;7.18;;;4.50;;
40997;SDS011;26740;45.944;12.480;2023-04-24T04:15:04;6.88;;;4.93;;
40997;SDS011;26740;45.944;12.480;2023-04-24T04:17:31;6.88;;;4.32;;
40997;SDS011;26740;45.944;12.480;2023-04-24T04:19:56;5.40;;;4.00;;
40997;SDS011;26740;45.944;12.480;2023-04-24T04:22:22;8.88;;;4.40;;
40997;SDS011;26740;45.944;12.480;2023-04-24T04:24:47;4.97;;;4.55;;
40997;SDS011;26740;45.944;12.480;2023-04-24T04:27:13;9.00;;;4.50;;
40997;SDS011;26740;45.944;12.480;2023-04-24T04:29:38;9.02;;;4.82;;
40997;SDS011;26740;45.944;12.480;2023-04-24T04:32:05;9.25;;;4.13;;
40997;SDS011;26740;45.944;12.480;2023-04-24T04:34:31;6.30;;;4.25;;
40997;SDS011;26740;45.944;12.480;2023-04-24T04:36:57;7.25;;;4.20;;
40997;SDS011;26740;45.944;12.480;2023-04-24T04:39:24;5.45;;;4.43;;
40997;SDS011;26740;45.944;12.480;2023-04-24T04:41:49;6.88;;;4.30;;
40997;SDS011;26740;45.944;12.480;2023-04-24T04:44:15;7.15;;;4.22;;
40997;SDS011;26740;45.944;12.480;2023-04-24T04:46:40;7.47;;;4.50;;
40997;SDS011;26740;45.944;12.480;2023-04-24T04:49:06;5.90;;;4.55;;
40997;SDS011;26740;45.944;12.480;2023-04-24T04:51:33;6.80;;;4.25;;
40997;SDS011;26740;45.944;12.480;2023-04-24T04:53:59;8.45;;;5.30;;
40997;SDS011;26740;45.944;12.480;2023-04-24T04:56:24;7.35;;;4.32;;
40997;SDS011;26740;45.944;12.480;2023-04-24T04:58:50;5.00;;;4.32;;
40997;SDS011;26740;45.944;12.480;2023-04-24T05:01:16;6.70;;;4.95;;
40997;SDS011;26740;45.944;12.480;2023-04-24T05:03:42;6.28;;;3.80;;
40997;SDS011;26740;45.944;12.480;2023-04-24T05:06:07;7.03;;;4.03;;
40997;SDS011;26740;45.944;12.480;2023-04-24T05:08:32;6.57;;;4.38;;
40997;SDS011;26740;45.944;12.480;2023-04-24T05:10:58;7.57;;;4.03;;
40997;SDS011;26740;45.944;12.480;2023-04-24T05:13:23;12.02;;;5.50;;
40997;SDS011;26740;45.944;12.480;2023-04-24T05:15:48;10.90;;;4.63;;
40997;SDS011;26740;45.944;12.480;2023-04-24T05:18:14;9.80;;;5.13;;
40997;SDS011;26740;45.944;12.480;2023-04-24T05:20:40;8.25;;;5.43;;
40997;SDS011;26740;45.944;12.480;2023-04-24T05:23:08;5.88;;;4.55;;
40997;SDS011;26740;45.944;12.480;2023-04-24T05:25:33;7.72;;;4.57;;
40997;SDS011;26740;45.944;12.480;2023-04-24T05:28:00;7.88;;;5.22;;
40997;SDS011;26740;45.944;12.480;2023-04-24T05:30:25;7.68;;;4.70;;
40997;SDS011;26740;45.944;12.480;2023-04-24T05:32:51;8.15;;;5.10;;
40997;SDS011;26740;45.944;12.480;2023-04-24T05:35:16;5.38;;;4.53;;
40997;SDS011;26740;45.944;12.480;2023-04-24T05:37:41;8.50;;;5.28;;
40997;SDS011;26740;45.944;12.480;2023-04-24T05:40:07;6.72;;;4.72;;
40997;SDS011;26740;45.944;12.480;2023-04-24T05:42:33;8.90;;;5.13;;
40997;SDS011;26740;45.944;12.480;2023-04-24T05:44:59;9.07;;;5.43;;
40997;SDS011;26740;45.944;12.480;2023-04-24T05:47:24;5.50;;;4.80;;
40997;SDS011;26740;45.944;12.480;2023-04-24T05:49:51;8.43;;;4.90;;
40997;SDS011;26740;45.944;12.480;2023-04-24T05:52:17;8.85;;;5.13;;
40997;SDS011;26740;45.944;12.480;2023-04-24T05:54:42;5.90;;;5.07;;
40997;SDS011;26740;45.944;12.480;2023-04-24T05:57:07;7.80;;;4.85;;
40997;SDS011;26740;45.944;12.480;2023-04-24T05:59:33;8.45;;;5.40;;
40997;SDS011;26740;45.944;12.480;2023-04-24T06:01:59;6.57;;;4.90;;
40997;SDS011;26740;45.944;12.480;2023-04-24T06:04:25;14.00;;;5.15;;
40997;SDS011;26740;45.944;12.480;2023-04-24T06:06:50;8.15;;;4.88;;
40997;SDS011;26740;45.944;12.480;2023-04-24T06:11:45;11.23;;;5.67;;
40997;SDS011;26740;45.944;12.480;2023-04-24T06:14:11;10.32;;;5.32;;
40997;SDS011;26740;45.944;12.480;2023-04-24T06:16:36;6.05;;;4.90;;
40997;SDS011;26740;45.944;12.480;2023-04-24T06:19:04;10.88;;;5.68;;
40997;SDS011;26740;45.944;12.480;2023-04-24T06:21:29;13.70;;;6.65;;
40997;SDS011;26740;45.944;12.480;2023-04-24T06:23:55;8.52;;;6.32;;
40997;SDS011;26740;45.944;12.480;2023-04-24T06:26:21;8.45;;;6.50;;
40997;SDS011;26740;45.944;12.480;2023-04-24T06:28:47;15.63;;;6.97;;
40997;SDS011;26740;45.944;12.480;2023-04-24T06:31:12;7.82;;;5.85;;
40997;SDS011;26740;45.944;12.480;2023-04-24T06:33:37;12.13;;;7.00;;
40997;SDS011;26740;45.944;12.480;2023-04-24T06:36:03;15.85;;;9.13;;
40997;SDS011;26740;45.944;12.480;2023-04-24T06:38:29;13.10;;;9.35;;
40997;SDS011;26740;45.944;12.480;2023-04-24T06:40:54;9.57;;;6.95;;
40997;SDS011;26740;45.944;12.480;2023-04-24T06:43:20;11.75;;;6.13;;
40997;SDS011;26740;45.944;12.480;2023-04-24T06:45:45;9.02;;;6.47;;
40997;SDS011;26740;45.944;12.480;2023-04-24T06:48:12;8.93;;;6.28;;
40997;SDS011;26740;45.944;12.480;2023-04-24T06:50:37;10.98;;;6.20;;
40997;SDS011;26740;45.944;12.480;2023-04-24T06:53:03;11.52;;;5.57;;
40997;SDS011;26740;45.944;12.480;2023-04-24T06:55:28;13.70;;;6.40;;
40997;SDS011;26740;45.944;12.480;2023-04-24T06:57:53;9.23;;;5.63;;
40997;SDS011;26740;45.944;12.480;2023-04-24T07:00:19;11.38;;;5.75;;
40997;SDS011;26740;45.944;12.480;2023-04-24T07:02:44;7.93;;;5.22;;
40997;SDS011;26740;45.944;12.480;2023-04-24T07:05:09;10.63;;;6.00;;
40997;SDS011;26740;45.944;12.480;2023-04-24T07:07:35;12.02;;;5.93;;
40997;SDS011;26740;45.944;12.480;2023-04-24T07:10:03;10.77;;;5.78;;
40997;SDS011;26740;45.944;12.480;2023-04-24T07:12:29;10.75;;;5.20;;
40997;SDS011;26740;45.944;12.480;2023-04-24T07:14:55;11.05;;;5.20;;
40997;SDS011;26740;45.944;12.480;2023-04-24T07:17:20;12.10;;;6.07;;
40997;SDS011;26740;45.944;12.480;2023-04-24T07:19:45;12.10;;;6.50;;
40997;SDS011;26740;45.944;12.480;2023-04-24T07:22:11;10.10;;;5.30;;
40997;SDS011;26740;45.944;12.480;2023-04-24T07:27:06;10.10;;;7.20;;
40997;SDS011;26740;45.944;12.480;2023-04-24T07:29:32;10.60;;;6.20;;
40997;SDS011;26740;45.944;12.480;2023-04-24T07:31:57;13.02;;;6.15;;
40997;SDS011;26740;45.944;12.480;2023-04-24T07:34:22;9.90;;;5.47;;
40997;SDS011;26740;45.944;12.480;2023-04-24T07:36:48;9.20;;;6.13;;
40997;SDS011;26740;45.944;12.480;2023-04-24T07:39:13;9.35;;;5.43;;
40997;SDS011;26740;45.944;12.480;2023-04-24T07:41:38;8.15;;;5.72;;
40997;SDS011;26740;45.944;12.480;2023-04-24T07:44:04;10.63;;;5.95;;
40997;SDS011;26740;45.944;12.480;2023-04-24T07:46:30;10.65;;;7.20;;
40997;SDS011;26740;45.944;12.480;2023-04-24T07:48:55;9.55;;;5.65;;
40997;SDS011;26740;45.944;12.480;2023-04-24T07:51:21;11.60;;;5.55;;
40997;SDS011;26740;45.944;12.480;2023-04-24T07:53:46;15.48;;;5.72;;
40997;SDS011;26740;45.944;12.480;2023-04-24T07:56:12;11.27;;;6.43;;
40997;SDS011;26740;45.944;12.480;2023-04-24T07:58:37;14.07;;;6.30;;
40997;SDS011;26740;45.944;12.480;2023-04-24T08:01:02;10.02;;;6.10;;
40997;SDS011;26740;45.944;12.480;2023-04-24T08:03:28;11.68;;;5.53;;
40997;SDS011;26740;45.944;12.480;2023-04-24T08:05:53;10.45;;;6.05;;
40997;SDS011;26740;45.944;12.480;2023-04-24T08:08:21;9.20;;;5.75;;
40997;SDS011;26740;45.944;12.480;2023-04-24T08:10:46;11.05;;;6.05;;
40997;SDS011;26740;45.944;12.480;2023-04-24T08:13:12;12.00;;;7.18;;
40997;SDS011;26740;45.944;12.480;2023-04-24T08:15:37;12.07;;;7.28;;
40997;SDS011;26740;45.944;12.480;2023-04-24T08:18:03;15.55;;;9.13;;
40997;SDS011;26740;45.944;12.480;2023-04-24T08:20:28;16.45;;;8.15;;
40997;SDS011;26740;45.944;12.480;2023-04-24T08:22:53;16.92;;;8.02;;
40997;SDS011;26740;45.944;12.480;2023-04-24T08:25:20;10.80;;;7.97;;
40997;SDS011;26740;45.944;12.480;2023-04-24T08:27:47;13.93;;;8.27;;
40997;SDS011;26740;45.944;12.480;2023-04-24T08:30:13;12.32;;;7.40;;
40997;SDS011;26740;45.944;12.480;2023-04-24T08:32:38;8.93;;;5.90;;
40997;SDS011;26740;45.944;12.480;2023-04-24T08:35:04;11.85;;;5.70;;
40997;SDS011;26740;45.944;12.480;2023-04-24T08:37:29;8.45;;;5.57;;
40997;SDS011;26740;45.944;12.480;2023-04-24T08:39:55;7.55;;;4.88;;
40997;SDS011;26740;45.944;12.480;2023-04-24T08:42:21;7.03;;;5.18;;
40997;SDS011;26740;45.944;12.480;2023-04-24T08:44:47;6.57;;;4.90;;
40997;SDS011;26740;45.944;12.480;2023-04-24T08:47:13;8.50;;;5.63;;
40997;SDS011;26740;45.944;12.480;2023-04-24T08:49:40;7.50;;;5.72;;
40997;SDS011;26740;45.944;12.480;2023-04-24T08:52:05;13.63;;;6.15;;
40997;SDS011;26740;45.944;12.480;2023-04-24T08:54:31;8.82;;;5.13;;
40997;SDS011;26740;45.944;12.480;2023-04-24T08:56:59;9.85;;;6.15;;
40997;SDS011;26740;45.944;12.480;2023-04-24T08:59:28;9.63;;;5.55;;
40997;SDS011;26740;45.944;12.480;2023-04-24T09:01:54;7.68;;;6.38;;
40997;SDS011;26740;45.944;12.480;2023-04-24T09:04:20;14.05;;;6.47;;
40997;SDS011;26740;45.944;12.480;2023-04-24T09:06:47;63.38;;;16.65;;
40997;SDS011;26740;45.944;12.480;2023-04-24T09:09:13;7.03;;;4.05;;
40997;SDS011;26740;45.944;12.480;2023-04-24T09:11:38;5.60;;;3.88;;
40997;SDS011;26740;45.944;12.480;2023-04-24T09:14:04;7.15;;;4.13;;
40997;SDS011;26740;45.944;12.480;2023-04-24T09:16:30;4.18;;;3.08;;
40997;SDS011;26740;45.944;12.480;2023-04-24T09:18:58;7.57;;;2.67;;
40997;SDS011;26740;45.944;12.480;2023-04-24T09:21:23;3.38;;;1.48;;
40997;SDS011;26740;45.944;12.480;2023-04-24T09:24:01;1.58;;;0.85;;
40997;SDS011;26740;45.944;12.480;2023-04-24T09:26:31;0.68;;;0.43;;
40997;SDS011;26740;45.944;12.480;2023-04-24T09:28:57;1.58;;;0.43;;
40997;SDS011;26740;45.944;12.480;2023-04-24T09:31:23;0.82;;;0.32;;
40997;SDS011;26740;45.944;12.480;2023-04-24T09:33:56;1.77;;;0.60;;
40997;SDS011;26740;45.944;12.480;2023-04-24T09:36:28;2.90;;;0.30;;
40997;SDS011;26740;45.944;12.480;2023-04-24T09:38:58;2.97;;;1.50;;
40997;SDS011;26740;45.944;12.480;2023-04-24T09:41:24;9.27;;;6.88;;
40997;SDS011;26740;45.944;12.480;2023-04-24T09:43:49;4.70;;;2.95;;
40997;SDS011;26740;45.944;12.480;2023-04-24T09:46:15;0.55;;;0.38;;
40997;SDS011;26740;45.944;12.480;2023-04-24T09:48:43;1.15;;;0.15;;
40997;SDS011;26740;45.944;12.480;2023-04-24T09:51:08;1.02;;;0.20;;
40997;SDS011;26740;45.944;12.480;2023-04-24T09:53:36;1.35;;;0.20;;
40997;SDS011;26740;45.944;12.480;2023-04-24T09:56:03;0.50;;;0.20;;
40997;SDS011;26740;45.944;12.480;2023-04-24T09:58:28;0.73;;;0.35;;
40997;SDS011;26740;45.944;12.480;2023-04-24T10:00:54;1.50;;;0.80;;
40997;SDS011;26740;45.944;12.480;2023-04-24T10:03:20;2.95;;;0.73;;
40997;SDS011;26740;45.944;12.480;2023-04-24T10:05:46;1.90;;;0.90;;
40997;SDS011;26740;45.944;12.480;2023-04-24T10:08:11;1.48;;;0.47;;
40997;SDS011;26740;45.944;12.480;2023-04-24T10:10:41;1.70;;;0.43;;
40997;SDS011;26740;45.944;12.480;2023-04-24T10:13:07;2.20;;;0.30;;
40997;SDS011;26740;45.944;12.480;2023-04-24T10:15:34;2.30;;;0.28;;
40997;SDS011;26740;45.944;12.480;2023-04-24T10:18:00;1.85;;;0.20;;
40997;SDS011;26740;45.944;12.480;2023-04-24T10:20:27;0.60;;;0.20;;
40997;SDS011;26740;45.944;12.480;2023-04-24T10:22:56;0.50;;;0.20;;
40997;SDS011;26740;45.944;12.480;2023-04-24T10:25:23;0.50;;;0.30;;
40997;SDS011;26740;45.944;12.480;2023-04-24T10:27:49;1.20;;;0.50;;
40997;SDS011;26740;45.944;12.480;2023-04-24T10:30:14;3.60;;;0.60;;
40997;SDS011;26740;45.944;12.480;2023-04-24T10:32:40;3.53;;;0.40;;
40997;SDS011;26740;45.944;12.480;2023-04-24T10:35:08;2.05;;;0.40;;
40997;SDS011;26740;45.944;12.480;2023-04-24T10:37:38;1.45;;;0.68;;
40997;SDS011;26740;45.944;12.480;2023-04-24T10:40:05;1.00;;;0.60;;
40997;SDS011;26740;45.944;12.480;2023-04-24T10:42:32;2.17;;;0.85;;
40997;SDS011;26740;45.944;12.480;2023-04-24T10:44:58;2.67;;;0.70;;
40997;SDS011;26740;45.944;12.480;2023-04-24T10:47:23;1.92;;;0.47;;
40997;SDS011;26740;45.944;12.480;2023-04-24T10:49:50;1.13;;;0.60;;
40997;SDS011;26740;45.944;12.480;2023-04-24T10:52:15;1.10;;;0.55;;
40997;SDS011;26740;45.944;12.480;2023-04-24T10:54:45;1.73;;;0.43;;
40997;SDS011;26740;45.944;12.480;2023-04-24T10:59:51;1.52;;;0.40;;
40997;SDS011;26740;45.944;12.480;2023-04-24T11:02:36;2.58;;;0.20;;
40997;SDS011;26740;45.944;12.480;2023-04-24T11:05:03;1.90;;;0.20;;
40997;SDS011;26740;45.944;12.480;2023-04-24T11:07:29;1.27;;;0.38;;
40997;SDS011;26740;45.944;12.480;2023-04-24T11:09:58;4.00;;;0.30;;
40997;SDS011;26740;45.944;12.480;2023-04-24T11:12:23;2.22;;;0.20;;
40997;SDS011;26740;45.944;12.480;2023-04-24T11:17:57;0.57;;;0.20;;
40997;SDS011;26740;45.944;12.480;2023-04-24T11:20:17;0.60;;;0.15;;
40997;SDS011;26740;45.944;12.480;2023-04-24T11:22:42;1.48;;;0.10;;
40997;SDS011;26740;45.944;12.480;2023-04-24T11:25:08;1.42;;;0.30;;
40997;SDS011;26740;45.944;12.480;2023-04-24T11:27:40;0.40;;;0.00;;
40997;SDS011;26740;45.944;12.480;2023-04-24T11:30:07;0.20;;;0.10;;
40997;SDS011;26740;45.944;12.480;2023-04-24T11:35:20;0.30;;;0.10;;
40997;SDS011;26740;45.944;12.480;2023-04-24T11:37:44;0.28;;;0.10;;
40997;SDS011;26740;45.944;12.480;2023-04-24T11:42:42;0.38;;;0.15;;
40997;SDS011;26740;45.944;12.480;2023-04-24T11:45:08;0.40;;;0.20;;
40997;SDS011;26740;45.944;12.480;2023-04-24T11:47:34;1.00;;;0.30;;
40997;SDS011;26740;45.944;12.480;2023-04-24T11:50:00;2.45;;;0.30;;
40997;SDS011;26740;45.944;12.480;2023-04-24T11:52:26;0.30;;;0.20;;
40997;SDS011;26740;45.944;12.480;2023-04-24T11:54:51;0.30;;;0.10;;
40997;SDS011;26740;45.944;12.480;2023-04-24T11:57:20;1.20;;;0.15;;
40997;SDS011;26740;45.944;12.480;2023-04-24T11:59:46;2.35;;;0.22;;
40997;SDS011;26740;45.944;12.480;2023-04-24T12:04:46;1.27;;;0.50;;
40997;SDS011;26740;45.944;12.480;2023-04-24T12:07:11;2.75;;;0.30;;
40997;SDS011;26740;45.944;12.480;2023-04-24T12:09:47;0.85;;;0.28;;
40997;SDS011;26740;45.944;12.480;2023-04-24T12:12:13;0.88;;;0.40;;
40997;SDS011;26740;45.944;12.480;2023-04-24T12:14:48;1.55;;;0.25;;
40997;SDS011;26740;45.944;12.480;2023-04-24T12:17:15;0.52;;;0.22;;
40997;SDS011;26740;45.944;12.480;2023-04-24T12:19:44;0.82;;;0.20;;
40997;SDS011;26740;45.944;12.480;2023-04-24T12:22:10;4.82;;;0.45;;
40997;SDS011;26740;45.944;12.480;2023-04-24T12:24:35;0.93;;;0.30;;
40997;SDS011;26740;45.944;12.480;2023-04-24T12:27:20;1.08;;;0.30;;
40997;SDS011;26740;45.944;12.480;2023-04-24T12:29:58;1.95;;;0.40;;
40997;SDS011;26740;45.944;12.480;2023-04-24T12:32:24;4.30;;;0.47;;
40997;SDS011;26740;45.944;12.480;2023-04-24T12:34:53;1.73;;;0.30;;
40997;SDS011;26740;45.944;12.480;2023-04-24T12:37:19;1.40;;;0.20;;
40997;SDS011;26740;45.944;12.480;2023-04-24T12:40:06;1.63;;;0.30;;
40997;SDS011;26740;45.944;12.480;2023-04-24T12:42:33;1.27;;;0.40;;
40997;SDS011;26740;45.944;12.480;2023-04-24T12:45:00;1.05;;;0.50;;
40997;SDS011;26740;45.944;12.480;2023-04-24T12:47:26;1.23;;;0.40;;
40997;SDS011;26740;45.944;12.480;2023-04-24T12:49:51;1.00;;;0.38;;
40997;SDS011;26740;45.944;12.480;2023-04-24T12:52:18;2.67;;;0.43;;
40997;SDS011;26740;45.944;12.480;2023-04-24T12:54:44;2.38;;;0.32;;
40997;SDS011;26740;45.944;12.480;2023-04-24T12:57:10;2.75;;;0.60;;
40997;SDS011;26740;45.944;12.480;2023-04-24T12:59:35;2.55;;;0.40;;
40997;SDS011;26740;45.944;12.480;2023-04-24T13:02:00;0.60;;;0.40;;
40997;SDS011;26740;45.944;12.480;2023-04-24T13:04:26;1.77;;;0.40;;
40997;SDS011;26740;45.944;12.480;2023-04-24T13:06:51;0.95;;;0.22;;
40997;SDS011;26740;45.944;12.480;2023-04-24T13:09:16;1.98;;;0.30;;
40997;SDS011;26740;45.944;12.480;2023-04-24T13:11:42;0.70;;;0.30;;
40997;SDS011;26740;45.944;12.480;2023-04-24T13:14:07;0.90;;;0.47;;
40997;SDS011;26740;45.944;12.480;2023-04-24T13:16:32;0.70;;;0.60;;
40997;SDS011;26740;45.944;12.480;2023-04-24T13:18:58;1.65;;;0.63;;
40997;SDS011;26740;45.944;12.480;2023-04-24T13:21:23;3.00;;;0.50;;
40997;SDS011;26740;45.944;12.480;2023-04-24T13:23:48;2.45;;;0.40;;
40997;SDS011;26740;45.944;12.480;2023-04-24T13:26:14;2.13;;;0.68;;
40997;SDS011;26740;45.944;12.480;2023-04-24T13:28:39;1.52;;;0.98;;
40997;SDS011;26740;45.944;12.480;2023-04-24T13:31:05;1.63;;;1.05;;
40997;SDS011;26740;45.944;12.480;2023-04-24T13:33:31;2.78;;;0.50;;
40997;SDS011;26740;45.944;12.480;2023-04-24T13:35:56;1.42;;;0.63;;
40997;SDS011;26740;45.944;12.480;2023-04-24T13:38:22;1.65;;;0.88;;
40997;SDS011;26740;45.944;12.480;2023-04-24T13:40:48;0.93;;;0.52;;
40997;SDS011;26740;45.944;12.480;2023-04-24T13:43:14;1.13;;;0.52;;
40997;SDS011;26740;45.944;12.480;2023-04-24T13:45:39;1.45;;;0.70;;
40997;SDS011;26740;45.944;12.480;2023-04-24T13:48:05;0.75;;;0.45;;
40997;SDS011;26740;45.944;12.480;2023-04-24T13:50:30;1.58;;;0.60;;
40997;SDS011;26740;45.944;12.480;2023-04-24T13:52:55;0.88;;;0.70;;
40997;SDS011;26740;45.944;12.480;2023-04-24T13:55:21;1.42;;;0.80;;
40997;SDS011;26740;45.944;12.480;2023-04-24T13:57:47;4.22;;;0.98;;
40997;SDS011;26740;45.944;12.480;2023-04-24T14:00:12;2.72;;;1.00;;
40997;SDS011;26740;45.944;12.480;2023-04-24T14:02:38;1.17;;;0.98;;
40997;SDS011;26740;45.944;12.480;2023-04-24T14:05:03;1.10;;;0.95;;
40997;SDS011;26740;45.944;12.480;2023-04-24T14:07:29;0.95;;;0.82;;
40997;SDS011;26740;45.944;12.480;2023-04-24T14:09:54;1.48;;;0.70;;
40997;SDS011;26740;45.944;12.480;2023-04-24T14:12:19;0.95;;;0.60;;
40997;SDS011;26740;45.944;12.480;2023-04-24T14:14:46;2.03;;;0.28;;
40997;SDS011;26740;45.944;12.480;2023-04-24T14:17:12;0.70;;;0.32;;
40997;SDS011;26740;45.944;12.480;2023-04-24T14:19:37;1.27;;;0.60;;
40997;SDS011;26740;45.944;12.480;2023-04-24T14:22:02;1.23;;;0.50;;
40997;SDS011;26740;45.944;12.480;2023-04-24T14:24:28;0.88;;;0.47;;
40997;SDS011;26740;45.944;12.480;2023-04-24T14:26:53;3.92;;;0.90;;
40997;SDS011;26740;45.944;12.480;2023-04-24T14:29:18;3.67;;;0.50;;
40997;SDS011;26740;45.944;12.480;2023-04-24T14:31:44;0.68;;;0.55;;
40997;SDS011;26740;45.944;12.480;2023-04-24T14:34:09;1.87;;;0.80;;
40997;SDS011;26740;45.944;12.480;2023-04-24T14:36:35;1.08;;;0.73;;
40997;SDS011;26740;45.944;12.480;2023-04-24T14:39:00;1.67;;;0.80;;
40997;SDS011;26740;45.944;12.480;2023-04-24T14:41:30;3.42;;;1.08;;